Lexington, SC (29071)

8:14 AM EDT on September 29, 2016 (GMT -0400)
Barre St & Third Ave | | Change Station

Elev 420 ft 33.98 °N, 81.24 °W | Updated 20 seconds ago

Scattered Clouds
Scattered Clouds
68.0 °F
Feels Like 68.0 °F
N
0.0
Wind Variable Wind from ESE

Today
High -- | Low -- °F
--% Chance of Precip.
Yesterday
High -- | Low -- °F
Precip. -- in
Pressure 29.91 in
Visibility 8.0 miles
Clouds Scattered Clouds 7000 ft
Dew Point 65 °F
Humidity 93%
Rainfall 0.00 in
Snow Depth Not available.
7:18 AM 7:11 PM
Waning Crescent, 2% visible
METAR KCAE 291156Z 27003KT 8SM SCT070 22/20 A2992 RMK AO2 SLP128 70013 T02220200 10244 20206 53011
Pressure 29.91 in
Visibility 8.0 miles
Clouds Scattered Clouds 7000 ft
Dew Point 65 °F
Humidity 93%
Rainfall 0.00 in
Snow Depth Not available.
7:18 AM 7:11 PM
Waning Crescent, 2% visible
METAR KCAE 291156Z 27003KT 8SM SCT070 22/20 A2992 RMK AO2 SLP128 70013 T02220200 10244 20206 53011

10-Day Weather Forecast

Almanac

Astronomy

Sep. 29, 2016 Rise Set
Actual Time
Civil Twilight
Nautical Twilight
Astronomical Twilight
Moon
Length of Visible Light
Length of Day
Tomorrow will be .
, % of the Moon is Illuminated

Today's Extremes

State Highs State Lows

Community

WunderPhotos

Upload Photos

1,942,466 photos uploaded!

WunderBlog® & News

Nearby

Air Quality

  Air Quality AQ Index Pollutant
Not available.

Snow Depth

Station Depth Elevation

Earthquake Activity

City Distance Mag. Time & Date
Minimum magnitude displayed is 2.5.

Coastal Water Temperatures

Place Temperature

Stations

Nearby Weather Stations

Station Location Temp. Windchill Dew Point Humidity Wind Precip. Elev Updated Type
                   

Watches & Warnings

There are currently no watches in effect.